Time;durP1;ratioP1;P1;durP2;ratioP2;P2;SDS_P1;SDS_P2;PMS_P1;PMS_P2;Temp;Humidity;BMP_temperature;BMP_pressure;BME280_temperature;BME280_humidity;BME280_pressure;Samples;Min_cycle;Max_cycle;Signal;HPM_P1;HPM_P2
2024/01/18 00:02:01;;;;;;;;;;;;;;;25.81;37.65;91889.63;5068365;28;7255;-56
2024/01/18 00:04:34;;;;;;;;;;;;;;;25.81;38.19;91888.88;5053923;28;8012;-56
2024/01/18 00:07:07;;;;;;;;;;;;;;;25.78;38.25;91888.00;5069321;28;9092;-56
2024/01/18 00:09:43;;;;;;;;;;;;;;;25.77;37.99;91894.81;5072918;28;7270;-41
2024/01/18 00:12:24;;;;;;;;;;;;;;;25.79;38.17;91902.50;5076060;28;8716;-40
2024/01/18 00:15:14;;;;;;;;;;;;;;;25.78;38.46;91899.00;5050294;28;9128;-41
2024/01/18 00:17:40;;;;;;;;;;;;;;;25.78;37.75;91903.78;5075289;28;7454;-41
2024/01/18 00:20:11;;;;;;;;;;;;;;;25.79;38.64;91894.97;5049012;28;8772;-40
2024/01/18 00:22:37;;;;;;;;;;;;;;;25.78;38.58;91892.78;5072468;28;8597;-40
2024/01/18 00:25:11;;;;;;;;;;;;;;;25.77;37.83;91886.56;5058307;28;7473;-42
2024/01/18 00:27:53;;;;;;;;;;;;;;;25.74;38.00;91889.72;5060262;28;7244;-40
2024/01/18 00:30:24;;;;;;;;;;;;;;;25.75;38.46;91882.91;5074678;28;7335;-40
2024/01/18 00:32:52;;;;;;;;;;;;;;;25.72;37.88;91876.53;5066492;28;7565;-41
2024/01/18 00:35:18;;;;;;;;;;;;;;;25.76;38.03;91870.59;5052188;28;8177;-42
2024/01/18 00:37:44;;;;;;;;;;;;;;;25.75;37.76;91875.38;5054644;28;7140;-40
2024/01/18 00:40:15;;;;;;;;;;;;;;;25.74;37.84;91882.19;5050808;28;6993;-40
2024/01/18 00:42:42;;;;;;;;;;;;;;;25.72;38.12;91873.03;5065516;28;7063;-41
2024/01/18 00:45:17;;;;;;;;;;;;;;;25.75;37.73;91872.63;5054418;28;9197;-40
2024/01/18 00:47:44;;;;;;;;;;;;;;;25.74;37.96;91884.94;5063423;28;8576;-41
2024/01/18 00:50:10;;;;;;;;;;;;;;;25.74;38.63;91882.19;5074023;28;6984;-41
2024/01/18 00:52:36;;;;;;;;;;;;;;;25.73;38.17;91874.50;5056442;28;7079;-40
2024/01/18 00:55:04;;;;;;;;;;;;;;;25.74;38.05;91881.44;5073941;28;7121;-41
2024/01/18 00:57:33;;;;;;;;;;;;;;;25.75;37.79;91878.13;5033654;28;7042;-41
2024/01/18 00:59:59;;;;;;;;;;;;;;;25.76;37.64;91887.84;5054814;28;9062;-41
2024/01/18 01:02:30;;;;;;;;;;;;;;;25.73;38.20;91886.22;5071248;28;7062;-41
2024/01/18 01:04:58;;;;;;;;;;;;;;;25.74;37.67;91882.19;5072490;28;9005;-42
2024/01/18 01:07:31;;;;;;;;;;;;;;;25.74;37.95;91884.94;5071399;28;7154;-42
2024/01/18 01:10:28;;;;;;;;;;;;;;;25.73;38.01;91877.25;5092528;28;8830;-41
2024/01/18 01:13:03;;;;;;;;;;;;;;;25.74;38.41;91886.97;4996855;28;9462;-41
2024/01/18 01:15:59;;;;;;;;;;;;;;;25.75;38.56;91885.66;4980817;28;8716;-41
2024/01/18 01:18:25;;;;;;;;;;;;;;;25.74;37.51;91884.22;4938465;28;7414;-41
2024/01/18 01:20:53;;;;;;;;;;;;;;;25.70;38.35;91881.88;4943011;28;9397;-36
2024/01/18 01:23:19;;;;;;;;;;;;;;;25.71;37.68;91883.31;4937380;28;7165;-36
2024/01/18 01:25:45;;;;;;;;;;;;;;;25.73;38.27;91882.75;4929355;28;8804;-36
2024/01/18 01:28:23;;;;;;;;;;;;;;;25.73;37.82;91897.25;4924563;29;7252;-36
2024/01/18 01:31:18;;;;;;;;;;;;;;;25.72;38.56;91906.06;4935994;29;9276;-36
2024/01/18 01:33:47;;;;;;;;;;;;;;;25.68;37.68;91898.25;4920971;29;7246;-36
2024/01/18 01:36:13;;;;;;;;;;;;;;;25.69;37.76;91896.19;4930674;29;9005;-36
2024/01/18 01:38:39;;;;;;;;;;;;;;;25.70;38.01;91906.66;4922908;29;8522;-36
2024/01/18 01:41:14;;;;;;;;;;;;;;;25.69;37.85;91910.69;4928207;28;7531;-36
2024/01/18 01:44:00;;;;;;;;;;;;;;;25.69;37.77;91913.44;4938414;28;7168;-36
2024/01/18 01:46:58;;;;;;;;;;;;;;;25.71;37.58;91907.38;4940141;28;7936;-36
2024/01/18 01:49:34;;;;;;;;;;;;;;;25.69;38.32;91902.44;4909469;29;7066;-36
2024/01/18 01:52:11;;;;;;;;;;;;;;;25.70;37.89;91898.41;4907508;29;7006;-36
2024/01/18 01:54:57;;;;;;;;;;;;;;;25.70;38.41;91903.91;4933017;28;9120;-36
2024/01/18 01:57:25;;;;;;;;;;;;;;;25.71;37.78;91899.84;4952159;28;8778;-36
2024/01/18 01:59:52;;;;;;;;;;;;;;;25.70;37.70;91895.66;4974537;28;9078;-36
2024/01/18 02:02:23;;;;;;;;;;;;;;;25.70;37.68;91889.41;4974696;28;9042;-36
2024/01/18 02:05:11;;;;;;;;;;;;;;;25.71;37.89;91890.88;4967131;28;9084;-36
2024/01/18 02:07:48;;;;;;;;;;;;;;;25.71;38.12;91882.63;4968806;28;7194;-36
2024/01/18 02:10:26;;;;;;;;;;;;;;;25.69;37.52;91885.91;4961325;28;9105;-36
2024/01/18 02:13:03;;;;;;;;;;;;;;;25.71;37.73;91874.34;4959326;28;7170;-36
2024/01/18 02:15:29;;;;;;;;;;;;;;;25.71;37.83;91883.31;4990166;28;8245;-36
2024/01/18 02:17:57;;;;;;;;;;;;;;;25.72;37.66;91884.06;4974382;28;7300;-36
2024/01/18 02:20:25;;;;;;;;;;;;;;;25.71;38.32;91882.63;4957992;28;9172;-36
2024/01/18 02:23:05;;;;;;;;;;;;;;;25.71;38.26;91882.63;4974475;28;7157;-36
2024/01/18 02:25:39;;;;;;;;;;;;;;;25.70;37.87;91868.13;5040121;28;8785;-36
2024/01/18 02:28:05;;;;;;;;;;;;;;;25.70;38.30;91879.13;5046795;28;6996;-36
2024/01/18 02:30:35;;;;;;;;;;;;;;;25.72;37.96;91873.03;5053966;28;8748;-36
2024/01/18 02:33:02;;;;;;;;;;;;;;;25.71;37.59;91872.31;5060633;28;9212;-36
2024/01/18 02:35:28;;;;;;;;;;;;;;;25.72;38.01;91878.53;5067629;28;9112;-36
2024/01/18 02:37:54;;;;;;;;;;;;;;;25.71;38.47;91874.34;5062231;28;8307;-36
2024/01/18 02:40:23;;;;;;;;;;;;;;;25.68;38.36;91856.94;5046351;28;8774;-36
2024/01/18 02:42:52;;;;;;;;;;;;;;;25.69;37.72;91857.66;5068716;28;7060;-36
2024/01/18 02:45:24;;;;;;;;;;;;;;;25.69;37.79;91869.41;5064270;28;9149;-36
2024/01/18 02:47:50;;;;;;;;;;;;;;;25.72;37.72;91868.28;5054831;28;7165;-36
2024/01/18 02:50:23;;;;;;;;;;;;;;;25.71;37.55;91858.53;5053285;28;8754;-36
2024/01/18 02:53:20;;;;;;;;;;;;;;;25.73;38.25;91863.50;5060948;28;7253;-36
2024/01/18 02:56:33;;;;;;;;;;;;;;;25.73;38.01;91858.69;5061081;28;7069;-36
2024/01/18 02:59:09;;;;;;;;;;;;;;;25.73;38.00;91853.19;5009829;28;7538;-36
2024/01/18 03:01:35;;;;;;;;;;;;;;;25.72;37.93;91851.75;4993138;28;9034;-36
2024/01/18 03:04:14;;;;;;;;;;;;;;;25.71;37.93;91850.28;5000696;28;7221;-36
2024/01/18 03:06:52;;;;;;;;;;;;;;;25.72;37.74;91849.00;4995925;28;9427;-36
2024/01/18 03:09:19;;;;;;;;;;;;;;;25.72;37.98;91846.25;4992926;28;9035;-36
2024/01/18 03:12:20;;;;;;;;;;;;;;;25.72;37.29;91835.22;5017441;28;9255;-36
2024/01/18 03:14:48;;;;;;;;;;;;;;;25.72;37.86;91840.00;4932224;29;6860;-36
2024/01/18 03:17:14;;;;;;;;;;;;;;;25.66;37.44;91834.78;4935501;28;7188;-36
2024/01/18 03:20:12;;;;;;;;;;;;;;;25.71;37.96;91844.78;4937847;28;8681;-36
2024/01/18 03:22:49;;;;;;;;;;;;;;;25.72;37.97;91848.25;4878457;29;7006;-36
2024/01/18 03:25:23;;;;;;;;;;;;;;;25.71;38.13;91838.56;4877893;29;9102;-36
2024/01/18 03:27:52;;;;;;;;;;;;;;;25.69;38.12;91836.38;4890709;29;9202;-36
2024/01/18 03:30:40;;;;;;;;;;;;;;;25.74;37.56;91846.41;4874424;29;7196;-36
2024/01/18 03:33:19;;;;;;;;;;;;;;;25.73;38.16;91842.19;4885093;29;7271;-36
2024/01/18 03:35:44;;;;;;;;;;;;;;;25.72;37.86;91837.97;4892630;29;7267;-37
2024/01/18 03:38:10;;;;;;;;;;;;;;;25.71;38.05;91839.28;4911546;29;9263;-36
2024/01/18 03:40:37;;;;;;;;;;;;;;;25.69;37.60;91833.59;4925009;29;7216;-36
2024/01/18 03:43:03;;;;;;;;;;;;;;;25.70;37.55;91824.06;4924459;29;7039;-36
2024/01/18 03:45:43;;;;;;;;;;;;;;;25.69;37.78;91822.59;4922943;29;7160;-36
2024/01/18 03:48:18;;;;;;;;;;;;;;;25.67;37.83;91818.97;4916971;29;7482;-36
2024/01/18 03:51:31;;;;;;;;;;;;;;;25.69;38.35;91814.34;4945863;29;9019;-36
2024/01/18 03:54:05;;;;;;;;;;;;;;;25.70;37.99;91815.06;4955136;28;7045;-36
2024/01/18 03:56:32;;;;;;;;;;;;;;;25.70;37.51;91810.31;4975356;28;7228;-36
2024/01/18 03:59:06;;;;;;;;;;;;;;;25.70;37.64;91809.56;5056841;28;7886;-36
2024/01/18 04:01:32;;;;;;;;;;;;;;;25.71;37.59;91797.28;5081112;28;7376;-36
2024/01/18 04:04:01;;;;;;;;;;;;;;;25.68;38.07;91796.38;5069715;28;7008;-36
2024/01/18 04:06:30;;;;;;;;;;;;;;;25.72;37.45;91779.44;5059950;28;9265;-36
2024/01/18 04:08:56;;;;;;;;;;;;;;;25.69;37.87;91770.28;5022333;28;7054;-36
2024/01/18 04:11:26;;;;;;;;;;;;;;;25.72;37.69;91774.66;5046469;28;8736;-36
2024/01/18 04:14:10;;;;;;;;;;;;;;;25.72;37.25;91779.44;5055635;28;9041;-36
2024/01/18 04:16:38;;;;;;;;;;;;;;;25.72;37.62;91780.16;5069239;28;7323;-36
2024/01/18 04:19:07;;;;;;;;;;;;;;;25.74;37.90;91782.34;5054164;28;9392;-36
2024/01/18 04:21:36;;;;;;;;;;;;;;;25.76;37.54;91783.22;5073532;28;6980;-36
2024/01/18 04:24:07;;;;;;;;;;;;;;;25.77;37.24;91778.44;5055000;28;7229;-36
2024/01/18 04:26:42;;;;;;;;;;;;;;;25.77;37.99;91783.94;5066181;28;7218;-36
2024/01/18 04:29:30;;;;;;;;;;;;;;;25.78;38.04;91785.41;5049903;28;7062;-36
2024/01/18 04:31:58;;;;;;;;;;;;;;;25.77;37.30;91781.19;5067532;28;7015;-36
2024/01/18 04:34:23;;;;;;;;;;;;;;;25.72;37.96;91776.69;5069730;28;7252;-36
2024/01/18 04:36:49;;;;;;;;;;;;;;;25.75;37.84;91784.50;5084870;28;7075;-36
2024/01/18 04:39:16;;;;;;;;;;;;;;;25.76;37.58;91791.47;5070322;28;6967;-36
2024/01/18 04:41:42;;;;;;;;;;;;;;;25.76;38.07;91791.47;5069474;28;7258;-36
2024/01/18 04:44:08;;;;;;;;;;;;;;;25.76;37.84;91785.97;5035565;28;8194;-36
2024/01/18 04:46:36;;;;;;;;;;;;;;;25.76;37.39;91785.97;5063935;28;7983;-36
2024/01/18 04:49:02;;;;;;;;;;;;;;;25.74;37.63;91791.34;5066504;28;7224;-37
2024/01/18 04:51:30;;;;;;;;;;;;;;;25.71;37.63;91797.97;5066550;28;9267;-36
2024/01/18 04:53:59;;;;;;;;;;;;;;;25.72;37.93;91795.94;5067797;28;8798;-36
2024/01/18 04:56:29;;;;;;;;;;;;;;;25.71;37.93;91786.25;5067266;28;6863;-36
2024/01/18 04:58:56;;;;;;;;;;;;;;;25.71;37.49;91786.97;5060010;28;7194;-36
2024/01/18 05:01:23;;;;;;;;;;;;;;;25.71;37.37;91794.50;5064427;28;7239;-36
2024/01/18 05:03:58;;;;;;;;;;;;;;;25.73;37.71;91791.91;5064354;28;8832;-37
2024/01/18 05:06:28;;;;;;;;;;;;;;;25.71;37.51;91775.25;5054707;28;7259;-36
2024/01/18 05:08:57;;;;;;;;;;;;;;;25.70;37.79;91790.28;5056552;28;9090;-36
2024/01/18 05:11:26;;;;;;;;;;;;;;;25.70;37.99;91785.53;5072610;28;6978;-36
2024/01/18 05:13:57;;;;;;;;;;;;;;;25.68;37.37;91781.88;5059285;28;7491;-36
2024/01/18 05:16:25;;;;;;;;;;;;;;;25.70;37.45;91779.28;5033264;28;8998;-36
2024/01/18 05:18:51;;;;;;;;;;;;;;;25.68;37.56;91765.38;5053163;28;7243;-36
2024/01/18 05:21:21;;;;;;;;;;;;;;;25.69;37.79;91769.56;5069765;28;6843;-36
2024/01/18 05:23:49;;;;;;;;;;;;;;;25.66;37.84;91767.97;5056639;28;7247;-36
2024/01/18 05:26:21;;;;;;;;;;;;;;;25.69;37.91;91770.28;5070048;28;8987;-37
2024/01/18 05:28:49;;;;;;;;;;;;;;;25.65;38.10;91786.50;5058846;28;7360;-36
2024/01/18 05:31:21;;;;;;;;;;;;;;;25.69;37.52;91781.31;5052039;28;9059;-36
2024/01/18 05:34:01;;;;;;;;;;;;;;;25.71;38.34;91783.50;5061626;28;8104;-36
2024/01/18 05:36:29;;;;;;;;;;;;;;;25.68;37.98;91777.13;5037916;28;7283;-36
2024/01/18 05:38:55;;;;;;;;;;;;;;;25.76;41.14;91780.47;5053808;28;7072;-36
2024/01/18 05:41:23;;;;;;;;;;;;;;;25.85;40.07;91777.03;5037651;28;9091;-37
2024/01/18 05:44:17;;;;;;;;;;;;;;;25.90;40.28;91783.56;5045439;28;7066;-36
2024/01/18 05:46:44;;;;;;;;;;;;;;;25.90;40.57;91767.75;5040699;28;9516;-36
2024/01/18 05:49:18;;;;;;;;;;;;;;;25.95;40.10;91785.31;5061576;28;7188;-36
2024/01/18 05:51:44;;;;;;;;;;;;;;;25.97;39.90;91772.41;5054433;28;7005;-37
2024/01/18 05:54:30;;;;;;;;;;;;;;;25.96;39.68;91775.75;5037676;28;8436;-36
2024/01/18 05:57:11;;;;;;;;;;;;;;;25.98;38.75;91762.13;5059245;28;7012;-37
2024/01/18 06:00:32;;;;;;;;;;;;;;;25.97;39.51;91766.91;5054412;28;7276;-36
2024/01/18 06:03:00;;;;;;;;;;;;;;;25.97;39.01;91766.19;4984731;28;9158;-38
2024/01/18 06:05:39;;;;;;;;;;;;;;;26.00;39.64;91765.03;4977455;28;7117;-38
2024/01/18 06:08:18;;;;;;;;;;;;;;;26.03;39.07;91769.41;4969062;28;7255;-38
2024/01/18 06:10:44;;;;;;;;;;;;;;;26.03;38.75;91781.13;4998983;28;9401;-41
2024/01/18 06:13:40;;;;;;;;;;;;;;;26.01;38.52;91780.28;4959207;28;8695;-41
2024/01/18 06:16:11;;;;;;;;;;;;;;;26.00;38.54;91771.28;4894339;29;7132;-41
2024/01/18 06:18:42;;;;;;;;;;;;;;;26.00;38.81;91763.00;4896491;29;7213;-42
2024/01/18 06:21:52;;;;;;;;;;;;;;;26.01;38.36;91772.72;4897330;29;9065;-42
2024/01/18 06:24:23;;;;;;;;;;;;;;;26.02;37.78;91779.69;4903315;29;8936;-40
2024/01/18 06:26:49;;;;;;;;;;;;;;;26.03;38.41;91778.38;4895114;29;7243;-40
2024/01/18 06:29:16;;;;;;;;;;;;;;;25.99;38.28;91788.38;4880204;29;9027;-41
2024/01/18 06:31:43;;;;;;;;;;;;;;;25.99;37.94;91785.63;4896857;29;7227;-40
2024/01/18 06:34:25;;;;;;;;;;;;;;;25.97;37.27;91793.72;4903186;29;9378;-40
2024/01/18 06:36:51;;;;;;;;;;;;;;;25.93;37.54;91802.41;4930845;28;9132;-42
2024/01/18 06:39:17;;;;;;;;;;;;;;;25.93;38.04;91813.44;4957252;28;7147;-41
2024/01/18 06:42:11;;;;;;;;;;;;;;;25.97;38.30;91832.28;4973651;28;7438;-40
2024/01/18 06:45:10;;;;;;;;;;;;;;;25.97;38.25;91837.78;4973929;28;9074;-39
2024/01/18 06:47:36;;;;;;;;;;;;;;;25.96;37.45;91837.06;4908137;29;9260;-40
2024/01/18 06:50:13;;;;;;;;;;;;;;;25.96;37.64;91830.84;4891167;29;8783;-42
2024/01/18 06:52:58;;;;;;;;;;;;;;;26.00;38.29;91848.41;4903312;29;8136;-40
2024/01/18 06:55:32;;;;;;;;;;;;;;;26.03;38.06;91849.97;4919276;29;7633;-41
2024/01/18 06:58:29;;;;;;;;;;;;;;;26.05;37.95;91844.66;4941470;28;7375;-40
2024/01/18 07:01:17;;;;;;;;;;;;;;;26.05;37.88;91838.41;4886127;29;7999;-41
2024/01/18 07:03:43;;;;;;;;;;;;;;;26.03;38.15;91854.78;4906639;29;7395;-41
2024/01/18 07:06:11;;;;;;;;;;;;;;;26.04;37.79;91836.94;4892931;29;8728;-43
2024/01/18 07:09:08;;;;;;;;;;;;;;;26.03;37.76;91841.72;4911839;29;7063;-41
2024/01/18 07:11:36;;;;;;;;;;;;;;;26.02;37.72;91823.75;4858614;29;7518;-41
2024/01/18 07:14:32;;;;;;;;;;;;;;;26.02;37.43;91825.78;4869735;29;7083;-41
2024/01/18 07:17:44;;;;;;;;;;;;;;;26.03;37.62;91830.00;4862719;29;7278;-41
2024/01/18 07:20:12;;;;;;;;;;;;;;;26.03;37.42;91835.50;4839877;29;8401;-40
2024/01/18 07:22:57;;;;;;;;;;;;;;;26.04;37.49;91837.69;4853256;29;9093;-40
2024/01/18 07:25:36;;;;;;;;;;;;;;;26.00;37.28;91820.13;4877953;29;8877;-41
2024/01/18 07:28:09;;;;;;;;;;;;;;;26.03;37.81;91800.41;4878756;29;9105;-40
2024/01/18 07:30:44;;;;;;;;;;;;;;;26.03;37.15;91818.97;4878680;29;7713;-40
2024/01/18 07:33:10;;;;;;;;;;;;;;;26.01;37.63;91811.28;4878459;29;8820;-42
2024/01/18 07:35:36;;;;;;;;;;;;;;;26.01;37.82;91816.78;4878136;29;8929;-41
2024/01/18 07:38:02;;;;;;;;;;;;;;;25.99;37.76;91813.88;4952207;28;7344;-40
2024/01/18 07:40:28;;;;;;;;;;;;;;;25.98;38.16;91834.47;4977993;28;8909;-40
2024/01/18 07:43:03;;;;;;;;;;;;;;;25.99;37.94;91837.97;4992744;28;7233;-41
2024/01/18 07:45:45;;;;;;;;;;;;;;;26.02;37.53;91828.53;4973002;28;8272;-40
2024/01/18 07:48:12;;;;;;;;;;;;;;;26.02;37.81;91826.50;4968491;28;7225;-40
2024/01/18 07:51:06;;;;;;;;;;;;;;;26.01;38.09;91827.78;4992528;28;7239;-41
2024/01/18 07:53:52;;;;;;;;;;;;;;;26.01;37.79;91827.78;5012110;28;7170;-41
2024/01/18 07:56:21;;;;;;;;;;;;;;;26.02;37.65;91823.03;5021265;28;7236;-41
2024/01/18 07:59:30;;;;;;;;;;;;;;;26.01;37.27;91829.84;5055524;28;7244;-41
2024/01/18 08:02:03;;;;;;;;;;;;;;;26.01;37.61;91827.78;5037426;28;8824;-41
2024/01/18 08:04:57;;;;;;;;;;;;;;;26.03;37.80;91825.19;5055710;28;7334;-40
2024/01/18 08:07:44;;;;;;;;;;;;;;;26.02;39.55;91825.78;5063355;28;7397;-43
2024/01/18 08:10:26;;;;;;;;;;;;;;;26.07;45.68;91825.53;5068133;28;7339;-40
2024/01/18 08:13:04;;;;;;;;;;;;;;;26.10;47.58;91829.16;5072100;28;7297;-41
2024/01/18 08:15:32;;;;;;;;;;;;;;;26.19;48.17;91855.31;5062294;28;7236;-40
2024/01/18 08:18:00;;;;;;;;;;;;;;;26.24;49.77;91848.78;5065535;28;6855;-41
2024/01/18 08:20:28;;;;;;;;;;;;;;;26.27;51.28;91848.38;5056064;28;9231;-40
2024/01/18 08:23:22;;;;;;;;;;;;;;;26.36;52.43;91846.94;5059453;28;7332;-41
2024/01/18 08:26:04;;;;;;;;;;;;;;;26.37;51.87;91840.13;4999980;28;8753;-40
2024/01/18 08:28:44;;;;;;;;;;;;;;;26.38;49.84;91842.28;4986714;28;7683;-41
2024/01/18 08:31:11;;;;;;;;;;;;;;;26.38;47.26;91842.28;5001641;28;7340;-38
2024/01/18 08:33:48;;;;;;;;;;;;;;;26.30;45.20;91855.47;5012350;28;7247;-38
2024/01/18 08:36:14;;;;;;;;;;;;;;;26.26;44.11;91868.22;5010012;28;9493;-39
2024/01/18 08:38:39;;;;;;;;;;;;;;;26.20;43.32;91867.78;4982138;28;7322;-40
2024/01/18 08:41:06;;;;;;;;;;;;;;;26.14;42.35;91851.53;5000251;28;8701;-38
2024/01/18 08:44:00;;;;;;;;;;;;;;;26.13;41.64;91845.28;4986569;28;9138;-39
2024/01/18 08:46:27;;;;;;;;;;;;;;;26.15;41.14;91850.22;4992914;28;9411;-39
2024/01/18 08:48:53;;;;;;;;;;;;;;;26.08;40.24;91854.53;4978529;28;8740;-40
2024/01/18 08:51:22;;;;;;;;;;;;;;;26.06;40.53;91851.59;5002763;28;7224;-40
2024/01/18 08:53:48;;;;;;;;;;;;;;;26.04;40.50;91848.69;4999976;28;7261;-38
2024/01/18 08:56:16;;;;;;;;;;;;;;;26.04;40.04;91859.72;4998621;28;9596;-40
2024/01/18 08:58:45;;;;;;;;;;;;;;;26.03;39.49;91844.47;5001631;28;7667;-40
2024/01/18 09:01:13;;;;;;;;;;;;;;;26.04;40.01;91836.94;4989775;28;7492;-39
2024/01/18 09:03:42;;;;;;;;;;;;;;;26.04;39.63;91836.94;5063716;28;9211;-39
2024/01/18 09:06:07;;;;;;;;;;;;;;;26.03;39.84;91835.50;5073250;28;7454;-39
2024/01/18 09:08:34;;;;;;;;;;;;;;;26.03;39.80;91855.50;5056526;28;8277;-40
2024/01/18 09:11:02;;;;;;;;;;;;;;;26.06;39.29;91859.88;5049110;28;9064;-40
2024/01/18 09:13:28;;;;;;;;;;;;;;;26.03;39.53;91863.75;5044782;28;7089;-38
2024/01/18 09:15:54;;;;;;;;;;;;;;;26.06;39.42;91868.13;5068342;28;9146;-39
2024/01/18 09:18:20;;;;;;;;;;;;;;;26.09;38.98;91872.53;5065909;28;7328;-40
2024/01/18 09:20:51;;;;;;;;;;;;;;;26.10;38.95;91864.97;5071095;28;9269;-39
2024/01/18 09:23:19;;;;;;;;;;;;;;;26.08;39.31;91867.53;5062321;28;7186;-41
2024/01/18 09:25:46;;;;;;;;;;;;;;;26.06;39.25;91867.41;5066928;28;7217;-40
2024/01/18 09:28:12;;;;;;;;;;;;;;;26.05;38.99;91866.69;5073505;28;7361;-39
2024/01/18 09:30:38;;;;;;;;;;;;;;;26.09;39.24;91867.03;5045211;28;7230;-38
2024/01/18 09:33:06;;;;;;;;;;;;;;;26.06;39.35;91870.88;5054716;28;7087;-40
2024/01/18 09:35:32;;;;;;;;;;;;;;;26.09;39.20;91880.06;5053540;28;8643;-39
2024/01/18 09:37:58;;;;;;;;;;;;;;;26.08;38.95;91878.56;5070293;28;9011;-39
2024/01/18 09:40:27;;;;;;;;;;;;;;;26.02;39.49;91884.34;5073372;28;7306;-37
2024/01/18 09:43:15;;;;;;;;;;;;;;;26.04;39.71;91890.00;5071721;28;8696;-36
2024/01/18 09:45:48;;;;;;;;;;;;;;;26.05;38.54;91894.22;5070519;28;7275;-36
2024/01/18 09:48:15;;;;;;;;;;;;;;;26.05;39.53;91899.75;5054525;28;7286;-36
2024/01/18 09:50:58;;;;;;;;;;;;;;;26.04;39.37;91906.53;5070467;28;8934;-36
2024/01/18 09:53:29;;;;;;;;;;;;;;;26.06;38.52;91912.19;5069441;28;9486;-36
2024/01/18 09:56:06;;;;;;;;;;;;;;;26.06;38.81;91906.69;5046951;28;7144;-36
2024/01/18 09:58:51;;;;;;;;;;;;;;;26.08;38.15;91906.88;5064973;28;9227;-36
2024/01/18 10:01:24;;;;;;;;;;;;;;;26.07;38.00;91908.16;5056121;28;8054;-37
2024/01/18 10:04:12;;;;;;;;;;;;;;;26.07;37.01;91912.94;5057540;28;7159;-36
2024/01/18 10:06:45;;;;;;;;;;;;;;;26.07;37.42;91916.44;5065405;28;8263;-36
2024/01/18 10:09:36;;;;;;;;;;;;;;;26.06;37.41;91934.25;5066336;28;7204;-36
2024/01/18 10:12:02;;;;;;;;;;;;;;;26.05;37.43;91930.03;5042029;28;7928;-36
2024/01/18 10:14:42;;;;;;;;;;;;;;;26.05;37.27;91919.03;5068839;28;9208;-36
2024/01/18 10:17:22;;;;;;;;;;;;;;;26.10;36.82;91925.56;5064072;28;7029;-37
2024/01/18 10:19:50;;;;;;;;;;;;;;;26.05;37.51;91927.28;5058878;28;7071;-37
2024/01/18 10:22:18;;;;;;;;;;;;;;;26.07;36.73;91921.94;5066529;28;7598;-37
2024/01/18 10:25:14;;;;;;;;;;;;;;;26.08;37.04;91917.13;5068304;28;7012;-36
2024/01/18 10:27:51;;;;;;;;;;;;;;;26.07;36.76;91916.44;5002320;28;9605;-37
2024/01/18 10:30:17;;;;;;;;;;;;;;;26.09;36.69;91924.13;5010387;28;7236;-37
2024/01/18 10:33:18;;;;;;;;;;;;;;;26.06;37.18;91912.19;4992190;28;8918;-36
2024/01/18 10:35:44;;;;;;;;;;;;;;;26.07;36.81;91919.19;5008266;28;9387;-36
2024/01/18 10:38:10;;;;;;;;;;;;;;;26.05;37.48;91916.28;5003487;28;9014;-36
2024/01/18 10:40:36;;;;;;;;;;;;;;;26.05;36.87;91923.81;5011723;28;7412;-36
2024/01/18 10:43:05;;;;;;;;;;;;;;;26.09;37.60;91915.88;5009482;28;9097;-37
2024/01/18 10:45:33;;;;;;;;;;;;;;;26.07;37.63;91910.91;5011843;28;8758;-36
2024/01/18 10:48:08;;;;;;;;;;;;;;;26.10;37.58;91907.03;5011399;28;8344;-36
2024/01/18 10:50:36;;;;;;;;;;;;;;;26.09;37.01;91913.84;5010936;28;7120;-38
2024/01/18 10:53:08;;;;;;;;;;;;;;;26.09;37.04;91915.88;4984727;28;7276;-38
2024/01/18 10:55:40;;;;;;;;;;;;;;;26.10;36.90;91917.31;5004587;28;9648;-39
2024/01/18 10:58:15;;;;;;;;;;;;;;;26.10;36.87;91923.56;5002903;28;8734;-38
2024/01/18 11:00:43;;;;;;;;;;;;;;;26.11;37.34;91919.50;4990741;28;9070;-39
2024/01/18 11:03:12;;;;;;;;;;;;;;;26.12;37.02;91920.94;5011092;28;9073;-39
2024/01/18 11:05:48;;;;;;;;;;;;;;;26.12;36.55;91926.47;4966087;28;7027;-38
2024/01/18 11:08:25;;;;;;;;;;;;;;;26.16;36.81;91928.81;4988768;28;9506;-38
2024/01/18 11:10:53;;;;;;;;;;;;;;;26.19;36.09;91932.47;5062497;28;9092;-38
2024/01/18 11:13:20;;;;;;;;;;;;;;;26.11;36.53;91925.03;5068035;28;7482;-41
2024/01/18 11:15:47;;;;;;;;;;;;;;;26.18;36.12;91934.47;5071644;28;6986;-39
2024/01/18 11:18:14;;;;;;;;;;;;;;;26.20;36.00;91939.41;5031174;28;7131;-40
2024/01/18 11:21:04;;;;;;;;;;;;;;;26.19;35.85;91933.16;5046848;28;7275;-39
2024/01/18 11:23:40;;;;;;;;;;;;;;;26.19;36.04;91935.91;5070585;28;7311;-40
2024/01/18 11:26:19;;;;;;;;;;;;;;;26.19;35.81;91929.69;5066955;28;9493;-38
2024/01/18 11:28:47;;;;;;;;;;;;;;;26.19;35.83;91937.97;5062105;28;7257;-40
2024/01/18 11:31:16;;;;;;;;;;;;;;;26.22;36.35;91936.81;5065707;28;9168;-40
2024/01/18 11:33:54;;;;;;;;;;;;;;;26.22;35.86;91934.03;5041767;28;8984;-39
2024/01/18 11:36:20;;;;;;;;;;;;;;;26.21;36.79;91940.88;5049283;28;9277;-38
2024/01/18 11:38:48;;;;;;;;;;;;;;;26.22;36.62;91945.06;5069245;28;7292;-38
2024/01/18 11:41:29;;;;;;;;;;;;;;;26.20;36.13;91942.16;5062559;28;7060;-38
2024/01/18 11:44:11;;;;;;;;;;;;;;;26.19;36.59;91946.22;5063624;28;9252;-39
2024/01/18 11:46:44;;;;;;;;;;;;;;;26.18;36.80;91945.50;5076613;28;9620;-39
2024/01/18 11:49:10;;;;;;;;;;;;;;;26.18;36.44;91945.50;5064135;28;6988;-39
2024/01/18 11:51:46;;;;;;;;;;;;;;;26.19;36.98;91951.75;5071727;28;7268;-40
2024/01/18 11:54:18;;;;;;;;;;;;;;;26.15;37.29;91930.84;5046346;28;7482;-39
2024/01/18 11:56:55;;;;;;;;;;;;;;;26.18;36.96;91934.47;5066099;28;7167;-39
2024/01/18 11:59:31;;;;;;;;;;;;;;;26.19;36.66;91924.91;5022583;28;7355;-55
2024/01/18 12:02:03;;;;;;;;;;;;;;;26.16;36.72;91923.31;5003721;28;7840;-55
2024/01/18 12:04:30;;;;;;;;;;;;;;;26.20;36.93;91931.88;4999546;28;7276;-55
2024/01/18 12:07:20;;;;;;;;;;;;;;;26.18;36.99;91928.97;5007664;28;7610;-55
2024/01/18 12:09:48;;;;;;;;;;;;;;;26.20;37.03;91920.13;5016018;28;7029;-56
2024/01/18 12:12:41;;;;;;;;;;;;;;;26.22;37.07;91929.28;5015105;28;7894;-55
2024/01/18 12:15:28;;;;;;;;;;;;;;;26.19;37.22;91919.38;5015640;28;7116;-56
2024/01/18 12:18:07;;;;;;;;;;;;;;;26.22;36.66;91928.53;4999564;28;9108;-56
2024/01/18 12:20:35;;;;;;;;;;;;;;;26.23;37.34;91921.75;5023954;28;9071;-55
2024/01/18 12:23:03;;;;;;;;;;;;;;;26.23;37.13;91919.69;5011817;28;7242;-55
2024/01/18 12:25:31;;;;;;;;;;;;;;;26.27;36.91;91919.28;5016864;28;9116;-56
2024/01/18 12:27:57;;;;;;;;;;;;;;;26.30;36.93;91923.63;5024739;28;8657;-56
2024/01/18 12:30:23;;;;;;;;;;;;;;;26.26;37.27;91923.34;5024575;28;7220;-56
2024/01/18 12:32:49;;;;;;;;;;;;;;;26.25;36.85;91924.66;5016222;28;9198;-56
2024/01/18 12:35:15;;;;;;;;;;;;;;;26.22;36.94;91932.03;5017105;28;8735;-56
2024/01/18 12:37:41;;;;;;;;;;;;;;;26.10;35.89;91934.56;5048179;28;7306;-56
2024/01/18 12:40:09;;;;;;;;;;;;;;;26.06;35.42;91928.00;5066228;28;7288;-56
2024/01/18 12:42:40;;;;;;;;;;;;;;;25.98;34.56;91927.38;5068105;28;7144;-56
2024/01/18 12:45:07;;;;;;;;;;;;;;;25.99;33.96;91924.03;5055155;28;9374;-56
2024/01/18 12:47:36;;;;;;;;;;;;;;;26.01;34.19;91934.50;5054552;28;7242;-56
2024/01/18 12:50:07;;;;;;;;;;;;;;;26.02;33.89;91922.19;5072374;28;7601;-56
2024/01/18 12:52:36;;;;;;;;;;;;;;;26.03;33.88;91931.91;5071709;28;7065;-56
2024/01/18 12:55:11;;;;;;;;;;;;;;;26.04;34.18;91927.84;5073281;28;7248;-56
2024/01/18 12:57:37;;;;;;;;;;;;;;;26.03;34.38;91929.88;5056533;28;9182;-56
2024/01/18 13:00:08;;;;;;;;;;;;;;;26.03;33.93;91931.91;5073804;28;9344;-56
2024/01/18 13:02:41;;;;;;;;;;;;;;;25.98;34.44;91927.38;5069573;28;6995;-56
2024/01/18 13:05:14;;;;;;;;;;;;;;;26.04;34.03;91936.09;5038571;28;9064;-56
2024/01/18 13:07:41;;;;;;;;;;;;;;;26.02;34.92;91939.44;5050118;28;6991;-56
2024/01/18 13:10:13;;;;;;;;;;;;;;;26.03;34.89;91943.63;5076564;28;7253;-36
2024/01/18 13:12:39;;;;;;;;;;;;;;;26.07;34.82;91946.00;5070236;28;7289;-36
2024/01/18 13:15:06;;;;;;;;;;;;;;;26.07;34.38;91941.22;5073275;28;6989;-37
2024/01/18 13:17:33;;;;;;;;;;;;;;;26.08;34.71;91953.69;5075074;28;7268;-37
2024/01/18 13:20:00;;;;;;;;;;;;;;;26.08;35.10;91952.94;5063508;28;9156;-37
2024/01/18 13:22:33;;;;;;;;;;;;;;;26.11;35.00;91952.56;5054335;28;9492;-37
2024/01/18 13:25:02;;;;;;;;;;;;;;;26.06;34.83;91963.81;5057533;28;7288;-37
2024/01/18 13:27:31;;;;;;;;;;;;;;;26.09;34.56;91963.44;5063223;28;9156;-37
2024/01/18 13:30:03;;;;;;;;;;;;;;;26.12;35.29;91965.03;5051627;28;7406;-36
2024/01/18 13:32:30;;;;;;;;;;;;;;;26.15;34.99;91969.41;5054829;28;9482;-37